Time;durP1;ratioP1;P1;durP2;ratioP2;P2;SDS_P1;SDS_P2;PMS_P1;PMS_P2;Temp;Humidity;BMP_temperature;BMP_pressure;BME280_temperature;BME280_humidity;BME280_pressure;Samples;Min_cycle;Max_cycle;Signal;HPM_P1;HPM_P2
2021/12/19 00:09:06;;;;;;;6.90;2.00;;;7.40;99.90;;;;;;5093178;28;20490;-87
2021/12/19 00:11:32;;;;;;;8.27;2.13;;;7.40;99.90;;;;;;5093113;28;20861;-87
2021/12/19 00:13:59;;;;;;;3.33;1.40;;;7.40;99.90;;;;;;5091925;28;20177;-87
2021/12/19 00:16:25;;;;;;;11.73;1.90;;;7.40;99.90;;;;;;5092886;28;21010;-87
2021/12/19 00:18:53;;;;;;;4.87;1.67;;;7.40;99.90;;;;;;5091615;28;20416;-86
2021/12/19 00:21:20;;;;;;;4.10;1.13;;;7.40;99.90;;;;;;5092758;28;20831;-87
2021/12/19 00:23:47;;;;;;;4.70;1.83;;;7.50;99.90;;;;;;5071790;28;20428;-86
2021/12/19 00:26:15;;;;;;;5.67;1.00;;;7.40;99.90;;;;;;5071084;28;20955;-87
2021/12/19 00:28:42;;;;;;;7.20;1.67;;;7.50;99.90;;;;;;5072017;28;20801;-87
2021/12/19 00:31:08;;;;;;;11.43;2.37;;;7.50;99.90;;;;;;5071575;28;20453;-86
2021/12/19 00:33:34;;;;;;;9.30;1.67;;;7.40;99.90;;;;;;5071460;28;20408;-88
2021/12/19 00:36:00;;;;;;;7.23;1.70;;;7.50;99.90;;;;;;5070752;28;21135;-85
2021/12/19 00:38:26;;;;;;;3.57;1.53;;;7.50;99.90;;;;;;5071282;28;20712;-87
2021/12/19 00:40:52;;;;;;;5.90;2.23;;;7.40;99.90;;;;;;5072674;28;20416;-88
2021/12/19 00:46:05;;;;;;;7.23;1.60;;;7.50;99.90;;;;;;5072745;28;20412;-86
2021/12/19 00:48:31;;;;;;;6.33;1.70;;;7.50;99.90;;;;;;5071913;28;20423;-86
2021/12/19 00:50:57;;;;;;;4.40;2.27;;;7.50;99.90;;;;;;5071635;28;20416;-89
2021/12/19 00:53:23;;;;;;;6.90;1.20;;;7.50;99.90;;;;;;5072519;28;20539;-87
2021/12/19 00:55:48;;;;;;;8.37;1.67;;;7.50;99.90;;;;;;5072409;28;20495;-85
2021/12/19 00:58:14;;;;;;;10.10;2.80;;;7.50;99.90;;;;;;5072395;28;20182;-88
2021/12/19 01:00:40;;;;;;;6.70;1.40;;;7.50;99.90;;;;;;5073523;28;20175;-85
2021/12/19 01:03:05;;;;;;;7.90;2.00;;;7.40;99.90;;;;;;5078513;28;20193;-86
2021/12/19 01:05:35;;;;;;;9.80;1.83;;;7.50;99.90;;;;;;5070953;28;20612;-86
2021/12/19 01:08:02;;;;;;;9.17;2.07;;;7.50;99.90;;;;;;5072160;28;20587;-86
2021/12/19 01:10:28;;;;;;;8.40;1.70;;;7.50;99.90;;;;;;5078242;28;20447;-86
2021/12/19 01:12:54;;;;;;;9.10;2.30;;;7.50;99.90;;;;;;5083541;28;20400;-85
2021/12/19 01:15:20;;;;;;;7.53;2.03;;;7.40;99.90;;;;;;5082558;28;20417;-86
2021/12/19 01:17:46;;;;;;;6.13;2.17;;;7.40;99.90;;;;;;5077896;28;20255;-91
2021/12/19 01:20:20;;;;;;;6.60;2.63;;;7.40;99.90;;;;;;5075556;28;20909;-89
2021/12/19 01:22:46;;;;;;;5.87;1.90;;;7.50;99.90;;;;;;5076494;28;20182;-87
2021/12/19 01:25:12;;;;;;;6.90;2.10;;;7.50;99.90;;;;;;5075276;28;20423;-93
2021/12/19 01:27:38;;;;;;;10.40;2.67;;;7.40;99.90;;;;;;5076276;28;20411;-90
2021/12/19 01:30:05;;;;;;;8.40;2.70;;;7.50;99.90;;;;;;5076090;28;20412;-90
2021/12/19 01:32:31;;;;;;;8.73;3.30;;;7.50;99.90;;;;;;5075219;28;20269;-87
2021/12/19 01:34:57;;;;;;;6.77;2.60;;;7.50;99.90;;;;;;5076425;28;20452;-88
2021/12/19 01:37:22;;;;;;;6.97;4.43;;;7.40;99.90;;;;;;5074464;28;20272;-88
2021/12/19 01:39:48;;;;;;;13.83;3.23;;;7.50;99.90;;;;;;5075736;28;20336;-86
2021/12/19 01:42:14;;;;;;;10.30;3.23;;;7.50;99.90;;;;;;5076161;28;20178;-88
2021/12/19 01:44:40;;;;;;;11.67;2.53;;;7.50;99.90;;;;;;5074813;28;20174;-86
2021/12/19 01:47:06;;;;;;;5.50;1.60;;;7.50;99.90;;;;;;5101666;28;20428;-86
2021/12/19 01:49:31;;;;;;;9.43;3.70;;;7.50;99.90;;;;;;5116364;28;20168;-86
2021/12/19 01:51:57;;;;;;;7.87;3.40;;;7.50;99.90;;;;;;5115199;28;20183;-87
2021/12/19 01:54:23;;;;;;;11.30;4.00;;;7.50;99.90;;;;;;5116759;28;20199;-88
2021/12/19 01:56:49;;;;;;;6.80;1.87;;;7.50;99.90;;;;;;5115225;28;20471;-86
2021/12/19 01:59:15;;;;;;;8.90;3.50;;;7.50;99.90;;;;;;5117189;28;20180;-87
2021/12/19 02:01:52;;;;;;;12.53;4.60;;;7.50;99.90;;;;;;5115841;28;20417;-90
2021/12/19 02:04:20;;;;;;;10.10;4.20;;;7.50;99.90;;;;;;5116301;27;20405;-87
2021/12/19 02:06:46;;;;;;;9.77;2.40;;;7.50;99.90;;;;;;5114379;28;20765;-86
2021/12/19 02:09:12;;;;;;;7.23;3.10;;;7.50;99.90;;;;;;5116040;28;20782;-87
2021/12/19 02:11:40;;;;;;;12.80;3.50;;;7.50;99.90;;;;;;5102514;28;20499;-87
2021/12/19 02:14:07;;;;;;;10.13;3.50;;;7.50;99.90;;;;;;5094815;28;20235;-87
2021/12/19 02:16:36;;;;;;;16.33;3.10;;;7.60;99.90;;;;;;5094293;28;20474;-86
2021/12/19 02:19:03;;;;;;;10.00;3.93;;;7.50;99.90;;;;;;5095880;28;20472;-86
2021/12/19 02:21:29;;;;;;;7.47;4.20;;;7.50;99.90;;;;;;5095615;28;20432;-84
2021/12/19 02:23:59;;;;;;;10.77;3.63;;;7.60;99.90;;;;;;5095413;28;20420;-87
2021/12/19 02:26:25;;;;;;;11.27;2.40;;;7.50;99.90;;;;;;5094263;28;20419;-88
2021/12/19 02:28:50;;;;;;;13.83;3.33;;;7.50;99.90;;;;;;5094031;28;20407;-90
2021/12/19 02:31:16;;;;;;;16.37;3.93;;;7.50;99.90;;;;;;5095235;28;20666;-86
2021/12/19 02:33:53;;;;;;;13.37;4.37;;;7.50;99.90;;;;;;5095294;28;20173;-88
2021/12/19 02:36:36;;;;;;;12.27;3.20;;;7.50;99.90;;;;;;5094740;28;20243;-86
2021/12/19 02:50:01;;;;;;;7.97;2.80;;;7.50;99.90;;;;;;5074797;28;20416;-86
2021/12/19 02:52:27;;;;;;;8.47;2.73;;;7.60;99.90;;;;;;5074704;28;20416;-86
2021/12/19 02:54:52;;;;;;;9.90;2.50;;;7.50;99.90;;;;;;5074515;28;20173;-86
2021/12/19 02:57:18;;;;;;;14.23;2.83;;;7.60;99.90;;;;;;5073073;28;20214;-87
2021/12/19 02:59:44;;;;;;;7.00;3.10;;;7.50;99.90;;;;;;5074379;28;20170;-86
2021/12/19 03:02:09;;;;;;;7.53;1.70;;;7.50;99.90;;;;;;5074388;28;20642;-87
2021/12/19 03:04:35;;;;;;;5.80;2.07;;;7.50;99.90;;;;;;5074239;28;20169;-85
2021/12/19 03:07:00;;;;;;;6.90;1.97;;;7.50;99.90;;;;;;5073910;28;20308;-84
2021/12/19 03:20:13;;;;;;;11.73;3.30;;;7.50;99.90;;;;;;5074011;28;20438;-87
2021/12/19 03:22:39;;;;;;;8.13;2.90;;;7.50;99.90;;;;;;5072930;28;20427;-86
2021/12/19 03:25:05;;;;;;;7.83;2.70;;;7.50;99.90;;;;;;5079488;28;20188;-86
2021/12/19 03:27:30;;;;;;;13.20;4.60;;;7.50;99.90;;;;;;5095059;28;20176;-85
2021/12/19 03:29:56;;;;;;;10.87;2.60;;;7.50;99.90;;;;;;5102075;28;20419;-85
2021/12/19 03:32:24;;;;;;;6.37;3.47;;;7.50;99.90;;;;;;5088143;28;20186;-87
2021/12/19 03:34:49;;;;;;;12.27;3.20;;;7.40;99.90;;;;;;5095224;28;20193;-86
2021/12/19 03:37:15;;;;;;;12.07;2.70;;;7.50;99.90;;;;;;5095291;28;20517;-86
2021/12/19 03:40:06;;;;;;;5.80;3.10;;;7.50;99.90;;;;;;5093932;28;20681;-87
2021/12/19 03:42:32;;;;;;;9.27;2.57;;;7.50;99.90;;;;;;5083724;28;20320;-86
2021/12/19 03:44:57;;;;;;;10.93;1.93;;;7.50;99.90;;;;;;5072196;28;20996;-87
2021/12/19 03:47:23;;;;;;;10.37;1.60;;;7.50;99.90;;;;;;5072335;28;20236;-88
2021/12/19 03:49:49;;;;;;;5.70;0.87;;;7.50;99.90;;;;;;5072108;28;20174;-87
2021/12/19 03:52:14;;;;;;;4.03;0.90;;;7.50;99.90;;;;;;5073265;28;20211;-87
2021/12/19 03:54:40;;;;;;;7.73;1.30;;;7.50;99.90;;;;;;5076455;28;20244;-86
2021/12/19 03:57:06;;;;;;;4.90;0.87;;;7.50;99.90;;;;;;5072019;28;20246;-86
2021/12/19 03:59:31;;;;;;;3.27;0.50;;;7.50;99.90;;;;;;5072036;28;20582;-86
2021/12/19 04:01:57;;;;;;;2.37;0.50;;;7.60;99.90;;;;;;5071959;28;20600;-86
2021/12/19 04:04:23;;;;;;;1.53;0.50;;;7.50;99.90;;;;;;5073281;28;20209;-86
2021/12/19 04:06:48;;;;;;;5.40;1.03;;;7.50;99.90;;;;;;5073049;28;20171;-86
2021/12/19 04:09:14;;;;;;;6.10;1.33;;;7.40;99.90;;;;;;5073182;28;20547;-86
2021/12/19 04:11:40;;;;;;;5.27;0.70;;;7.40;99.90;;;;;;5071934;28;20269;-87
2021/12/19 04:14:05;;;;;;;3.70;0.80;;;7.40;99.90;;;;;;5072147;28;20173;-87
2021/12/19 04:16:31;;;;;;;3.40;0.40;;;7.30;99.90;;;;;;5071950;28;20209;-86
2021/12/19 04:18:57;;;;;;;3.00;1.13;;;7.30;99.90;;;;;;5071836;28;20166;-88
2021/12/19 04:21:23;;;;;;;2.67;0.40;;;7.30;99.90;;;;;;5072940;28;20721;-87
2021/12/19 04:23:48;;;;;;;2.13;0.63;;;7.30;99.90;;;;;;5073102;28;20162;-87
2021/12/19 04:26:14;;;;;;;3.53;1.17;;;7.30;99.90;;;;;;5073036;28;20551;-87
2021/12/19 04:28:40;;;;;;;2.73;0.20;;;7.20;99.90;;;;;;5071901;28;20177;-86
2021/12/19 04:31:05;;;;;;;4.67;0.50;;;7.20;99.90;;;;;;5072968;28;20700;-86
2021/12/19 04:33:33;;;;;;;2.37;0.63;;;7.20;99.90;;;;;;5072938;28;20200;-86
2021/12/19 04:36:02;;;;;;;4.97;0.90;;;7.10;99.90;;;;;;5072687;28;20170;-87
2021/12/19 04:57:52;;;;;;;4.60;0.90;;;7.00;99.90;;;;;;5097049;28;20989;-86
2021/12/19 05:00:23;;;;;;;1.30;0.27;;;7.00;99.90;;;;;;5096853;28;20403;-86
2021/12/19 05:02:54;;;;;;;1.50;0.20;;;7.00;99.90;;;;;;5095609;28;20518;-85
2021/12/19 05:06:02;;;;;;;1.40;0.40;;;7.00;99.90;;;;;;5095170;28;20422;-86
2021/12/19 05:16:23;;;;;;;2.10;0.70;;;7.00;99.90;;;;;;5076487;28;20613;-85
2021/12/19 05:18:51;;;;;;;2.73;0.83;;;7.00;99.90;;;;;;5075059;28;20458;-84
2021/12/19 05:21:21;;;;;;;2.60;0.90;;;7.00;99.90;;;;;;5075829;28;20432;-86
2021/12/19 05:26:25;;;;;;;5.23;0.80;;;7.00;99.90;;;;;;5076202;28;20421;-86
2021/12/19 05:28:52;;;;;;;6.63;0.67;;;7.10;99.90;;;;;;5075959;28;20423;-84
2021/12/19 05:31:19;;;;;;;3.73;1.07;;;7.10;99.90;;;;;;5074611;28;20455;-86
2021/12/19 05:33:46;;;;;;;5.10;1.13;;;7.20;99.90;;;;;;5076275;28;20478;-85
2021/12/19 05:44:10;;;;;;;3.60;1.03;;;7.10;99.90;;;;;;5075436;28;20451;-87
2021/12/19 05:46:54;;;;;;;3.27;0.93;;;7.20;99.90;;;;;;5046740;28;20190;-87
2021/12/19 05:49:20;;;;;;;3.70;1.10;;;7.10;99.90;;;;;;5077908;28;20407;-87
2021/12/19 05:51:46;;;;;;;6.83;1.03;;;7.20;99.90;;;;;;5094215;28;20985;-87
2021/12/19 05:54:12;;;;;;;3.53;0.73;;;7.20;99.90;;;;;;5095397;28;20169;-88
2021/12/19 05:56:38;;;;;;;7.30;2.50;;;7.20;99.90;;;;;;5094715;28;20502;-88
2021/12/19 05:59:04;;;;;;;4.47;0.73;;;7.20;99.90;;;;;;5095030;28;20442;-87
2021/12/19 06:01:30;;;;;;;4.07;1.80;;;7.20;99.90;;;;;;5101529;28;20408;-88
2021/12/19 06:03:55;;;;;;;10.87;2.40;;;7.20;99.90;;;;;;5105416;28;20207;-86
2021/12/19 06:06:21;;;;;;;6.30;1.83;;;7.30;99.90;;;;;;5103741;28;20172;-88
2021/12/19 06:08:47;;;;;;;6.00;1.90;;;7.30;99.90;;;;;;5102999;28;20173;-87
2021/12/19 06:11:14;;;;;;;4.23;1.57;;;7.30;99.90;;;;;;5101881;28;20215;-87
2021/12/19 06:13:40;;;;;;;8.53;2.43;;;7.30;99.90;;;;;;5102959;28;20418;-87
2021/12/19 06:16:07;;;;;;;5.37;1.60;;;7.30;99.90;;;;;;5102305;28;20470;-87
2021/12/19 06:18:33;;;;;;;9.93;2.03;;;7.30;99.90;;;;;;5102777;28;20183;-87
2021/12/19 06:20:58;;;;;;;5.73;2.00;;;7.30;99.90;;;;;;5102242;28;20430;-87
2021/12/19 06:23:24;;;;;;;6.73;1.07;;;7.40;99.90;;;;;;5104817;28;20169;-87
2021/12/19 06:25:50;;;;;;;8.83;1.20;;;7.40;99.90;;;;;;5105454;28;20165;-87
2021/12/19 06:28:17;;;;;;;7.27;3.27;;;7.40;99.90;;;;;;5100757;28;20172;-85
2021/12/19 06:30:43;;;;;;;6.33;1.50;;;7.40;99.90;;;;;;5095003;28;20173;-86
2021/12/19 06:33:09;;;;;;;10.27;1.10;;;7.40;99.90;;;;;;5095703;28;20762;-86
2021/12/19 06:35:35;;;;;;;10.70;2.00;;;7.40;99.90;;;;;;5095346;28;20418;-85
2021/12/19 06:38:00;;;;;;;7.07;1.73;;;7.40;99.90;;;;;;5095707;28;20253;-86
2021/12/19 06:40:27;;;;;;;8.27;1.53;;;7.40;99.90;;;;;;5095461;28;20177;-86
2021/12/19 06:42:53;;;;;;;3.93;0.70;;;7.40;99.90;;;;;;5095377;28;20174;-86
2021/12/19 06:45:20;;;;;;;3.20;0.67;;;7.40;99.90;;;;;;5096436;28;20463;-84
2021/12/19 06:47:46;;;;;;;5.00;1.40;;;7.50;99.90;;;;;;5100009;28;20457;-83
2021/12/19 06:50:12;;;;;;;6.30;0.93;;;7.40;99.90;;;;;;5097007;28;20774;-84
2021/12/19 06:52:39;;;;;;;8.60;1.47;;;7.40;99.90;;;;;;5098901;28;20408;-84
2021/12/19 06:55:06;;;;;;;8.93;1.87;;;7.50;99.90;;;;;;5097608;28;20425;-84
2021/12/19 06:57:32;;;;;;;7.47;1.10;;;7.40;99.90;;;;;;5097159;28;20463;-86
2021/12/19 06:59:57;;;;;;;6.10;1.57;;;7.40;99.90;;;;;;5100371;28;20772;-84
2021/12/19 07:02:24;;;;;;;6.17;1.17;;;7.40;99.90;;;;;;5098085;28;20197;-84
2021/12/19 07:04:49;;;;;;;5.63;0.77;;;7.40;99.90;;;;;;5097147;28;20683;-85
2021/12/19 07:07:15;;;;;;;10.70;2.23;;;7.40;99.90;;;;;;5094873;28;20445;-84
2021/12/19 07:09:41;;;;;;;9.30;1.33;;;7.40;99.90;;;;;;5093107;28;20208;-85
2021/12/19 07:12:08;;;;;;;3.27;1.17;;;7.50;99.90;;;;;;5091845;28;21031;-85
2021/12/19 07:14:34;;;;;;;8.17;1.43;;;7.50;99.90;;;;;;5093618;28;20409;-85
2021/12/19 07:17:00;;;;;;;5.47;1.23;;;7.50;99.90;;;;;;5094037;28;20459;-84
2021/12/19 07:19:25;;;;;;;7.70;1.50;;;7.50;99.90;;;;;;5093797;28;20169;-85
2021/12/19 07:21:51;;;;;;;2.20;1.40;;;7.40;99.90;;;;;;5083609;28;20888;-85
2021/12/19 07:24:16;;;;;;;7.73;1.40;;;7.50;99.90;;;;;;5075957;28;20226;-85
2021/12/19 07:26:42;;;;;;;12.50;3.50;;;7.40;99.90;;;;;;5072885;28;20206;-84
2021/12/19 07:29:08;;;;;;;9.70;1.30;;;7.50;99.90;;;;;;5073939;28;20260;-84
2021/12/19 07:31:37;;;;;;;4.40;0.67;;;7.50;99.90;;;;;;5073869;28;20649;-85
2021/12/19 07:34:03;;;;;;;9.60;1.93;;;7.50;99.90;;;;;;5073637;28;20191;-86
2021/12/19 07:36:36;;;;;;;5.57;0.80;;;7.50;99.90;;;;;;5073374;28;20475;-85
2021/12/19 07:39:08;;;;;;;4.00;1.10;;;7.50;99.90;;;;;;5071722;28;20471;-87
2021/12/19 07:41:33;;;;;;;3.67;1.57;;;7.60;99.90;;;;;;5072793;28;20960;-86
2021/12/19 07:43:59;;;;;;;3.90;1.47;;;7.50;99.90;;;;;;5072728;28;20409;-86
2021/12/19 07:46:25;;;;;;;4.40;1.50;;;7.60;99.90;;;;;;5071323;28;20167;-86
2021/12/19 07:48:50;;;;;;;9.00;0.90;;;7.60;99.90;;;;;;5072763;28;20181;-86
2021/12/19 07:51:16;;;;;;;4.57;0.80;;;7.60;99.90;;;;;;5071352;28;20215;-86
2021/12/19 07:53:42;;;;;;;7.20;1.73;;;7.50;99.90;;;;;;5072582;28;20181;-85
2021/12/19 07:56:07;;;;;;;5.97;1.00;;;7.50;99.90;;;;;;5071521;28;20170;-85
2021/12/19 07:58:33;;;;;;;8.13;0.73;;;7.60;99.90;;;;;;5071190;28;20174;-87
2021/12/19 08:00:59;;;;;;;7.37;1.30;;;7.60;99.90;;;;;;5077657;28;20223;-85
2021/12/19 08:03:24;;;;;;;4.77;0.90;;;7.60;99.90;;;;;;5091479;28;20784;-84
2021/12/19 08:05:50;;;;;;;10.07;2.13;;;7.60;99.90;;;;;;5090935;28;20174;-86
2021/12/19 08:08:21;;;;;;;6.00;0.57;;;7.60;99.90;;;;;;5091247;28;20187;-85
2021/12/19 08:13:13;;;;;;;5.10;1.33;;;7.60;99.90;;;;;;5092570;28;20408;-85
2021/12/19 08:15:39;;;;;;;11.67;1.97;;;7.70;99.90;;;;;;5091250;28;20852;-86
2021/12/19 08:18:06;;;;;;;6.47;1.17;;;7.70;99.90;;;;;;5092700;28;20466;-86
2021/12/19 08:20:32;;;;;;;7.03;0.50;;;7.70;99.90;;;;;;5090790;28;21069;-85
2021/12/19 08:22:58;;;;;;;4.60;0.47;;;7.70;99.90;;;;;;5091081;28;20444;-84
2021/12/19 08:25:26;;;;;;;4.57;0.63;;;7.80;99.90;;;;;;5091722;28;20844;-85
2021/12/19 08:27:52;;;;;;;5.40;0.73;;;7.70;99.90;;;;;;5091636;28;20410;-85
2021/12/19 08:30:18;;;;;;;3.70;0.80;;;7.70;99.90;;;;;;5092201;28;20938;-84
2021/12/19 08:32:44;;;;;;;7.83;0.90;;;7.70;99.90;;;;;;5092145;28;20797;-85
2021/12/19 08:35:12;;;;;;;6.70;1.63;;;7.70;99.90;;;;;;5091639;28;20411;-86
2021/12/19 08:37:38;;;;;;;4.33;0.83;;;7.70;99.90;;;;;;5051103;28;1106549;-85
2021/12/19 08:40:06;;;;;;;9.40;1.47;;;7.70;99.90;;;;;;5091423;28;20450;-84
2021/12/19 08:42:33;;;;;;;7.33;1.47;;;7.70;99.90;;;;;;5092286;28;20415;-87
2021/12/19 08:44:59;;;;;;;3.33;1.17;;;7.70;99.90;;;;;;5094783;28;20841;-87
2021/12/19 08:47:25;;;;;;;6.20;0.73;;;7.70;99.90;;;;;;5111101;28;20445;-87
2021/12/19 08:49:51;;;;;;;12.50;1.10;;;7.70;99.90;;;;;;5110961;28;20203;-87
2021/12/19 08:52:16;;;;;;;5.23;0.77;;;7.80;99.90;;;;;;5112345;28;20169;-87
2021/12/19 08:54:42;;;;;;;4.00;0.80;;;7.80;99.90;;;;;;5112104;28;20428;-88
2021/12/19 08:57:07;;;;;;;7.47;0.70;;;7.80;99.90;;;;;;5111995;28;20217;-88
2021/12/19 08:59:33;;;;;;;8.03;1.23;;;7.80;99.90;;;;;;5110292;28;20172;-89
2021/12/19 09:02:01;;;;;;;3.57;0.60;;;7.80;99.90;;;;;;5095074;28;20621;-87
2021/12/19 09:04:28;;;;;;;3.63;0.60;;;7.80;99.90;;;;;;5080987;28;20421;-87
2021/12/19 09:06:56;;;;;;;6.40;1.40;;;7.90;99.90;;;;;;5105257;28;20431;-87
2021/12/19 09:09:22;;;;;;;4.67;0.73;;;7.90;99.90;;;;;;5071239;28;20436;-88
2021/12/19 09:11:49;;;;;;;9.70;1.60;;;7.90;99.90;;;;;;5072511;28;20558;-87
2021/12/19 09:14:14;;;;;;;5.00;0.90;;;7.90;99.90;;;;;;5072647;28;20468;-88
2021/12/19 09:16:40;;;;;;;13.47;1.77;;;7.90;99.90;;;;;;5086951;28;21009;-87
2021/12/19 09:19:06;;;;;;;5.13;1.63;;;7.90;99.90;;;;;;5091325;28;20174;-87
2021/12/19 09:21:31;;;;;;;5.60;1.03;;;7.90;99.90;;;;;;5091405;28;20181;-88
2021/12/19 09:23:57;;;;;;;4.40;1.10;;;7.90;99.90;;;;;;5092566;28;20178;-86
2021/12/19 09:26:22;;;;;;;9.10;1.50;;;7.90;99.90;;;;;;5092704;28;20162;-87
2021/12/19 09:28:48;;;;;;;7.20;1.20;;;7.90;99.90;;;;;;5091273;28;20536;-87
2021/12/19 09:31:14;;;;;;;5.93;1.10;;;8.00;99.90;;;;;;5092660;28;20275;-87
2021/12/19 09:33:39;;;;;;;7.77;1.40;;;7.90;99.90;;;;;;5093613;28;20171;-87
2021/12/19 09:36:05;;;;;;;8.97;0.83;;;7.90;99.90;;;;;;5090856;28;20172;-87
2021/12/19 09:38:30;;;;;;;10.20;3.73;;;8.00;99.90;;;;;;5093527;28;20257;-87
2021/12/19 09:41:11;;;;;;;10.37;1.10;;;8.00;99.90;;;;;;5092867;28;20791;-87
2021/12/19 09:43:43;;;;;;;8.50;1.63;;;8.00;99.90;;;;;;5086801;28;20209;-86
2021/12/19 09:46:10;;;;;;;4.20;0.90;;;8.00;99.90;;;;;;5095326;28;20427;-86
2021/12/19 09:48:37;;;;;;;5.90;1.17;;;8.10;99.90;;;;;;5095865;28;20428;-85
2021/12/19 09:51:03;;;;;;;7.30;2.10;;;8.10;99.90;;;;;;5098383;28;20417;-84
2021/12/19 09:53:29;;;;;;;7.03;1.53;;;8.10;99.90;;;;;;5104897;28;20435;-86
2021/12/19 09:55:54;;;;;;;6.13;1.43;;;8.10;99.90;;;;;;5100841;28;20431;-86
2021/12/19 09:58:20;;;;;;;5.13;1.30;;;8.10;99.90;;;;;;5098051;28;20594;-86
2021/12/19 10:00:45;;;;;;;5.53;0.67;;;8.20;99.90;;;;;;5094628;28;20186;-85
2021/12/19 10:03:11;;;;;;;7.80;2.47;;;8.20;99.90;;;;;;5095133;28;20182;-86
2021/12/19 10:05:37;;;;;;;6.77;1.03;;;8.10;99.90;;;;;;5075536;28;20546;-86
2021/12/19 10:08:04;;;;;;;3.90;1.10;;;8.20;99.90;;;;;;5090775;28;20254;-87
2021/12/19 10:11:00;;;;;;;4.47;0.90;;;8.30;99.90;;;;;;5073964;28;20431;-86
2021/12/19 10:13:35;;;;;;;4.83;0.90;;;8.30;99.90;;;;;;5091069;28;20408;-86
2021/12/19 10:16:01;;;;;;;7.43;1.80;;;8.30;99.90;;;;;;5094944;28;20427;-87
2021/12/19 10:18:27;;;;;;;9.60;1.13;;;8.30;99.90;;;;;;5083655;28;20514;-86
2021/12/19 10:21:00;;;;;;;4.80;0.80;;;8.30;99.90;;;;;;5116571;28;20505;-87
2021/12/19 10:23:29;;;;;;;4.53;1.00;;;8.30;99.90;;;;;;5100967;28;20182;-87
2021/12/19 10:26:02;;;;;;;6.03;1.60;;;8.30;99.90;;;;;;5095469;28;20420;-87
2021/12/19 10:28:29;;;;;;;13.60;1.07;;;8.40;99.90;;;;;;5095020;28;20417;-89
2021/12/19 10:30:56;;;;;;;8.07;1.43;;;8.40;99.90;;;;;;5094023;28;20413;-87
2021/12/19 10:33:25;;;;;;;7.30;0.87;;;8.40;99.90;;;;;;5095006;28;20426;-87
2021/12/19 10:35:54;;;;;;;4.90;0.90;;;8.40;99.90;;;;;;5093773;28;20940;-87
2021/12/19 10:38:24;;;;;;;5.30;0.97;;;8.40;99.90;;;;;;5073765;28;20817;-88
2021/12/19 10:41:01;;;;;;;3.53;0.50;;;8.40;99.90;;;;;;5075673;28;20430;-87
2021/12/19 10:43:31;;;;;;;6.20;1.70;;;8.40;99.90;;;;;;5090245;28;20553;-88
2021/12/19 10:46:03;;;;;;;7.63;1.63;;;8.40;99.90;;;;;;5100756;28;20830;-87
2021/12/19 10:48:30;;;;;;;10.90;1.17;;;8.40;99.90;;;;;;5094634;28;20497;-87
2021/12/19 10:50:57;;;;;;;7.93;0.67;;;8.40;99.90;;;;;;5095521;28;20412;-87
2021/12/19 10:53:32;;;;;;;6.00;0.80;;;8.40;99.90;;;;;;5096629;28;20419;-86
2021/12/19 10:56:00;;;;;;;6.40;1.37;;;8.40;99.90;;;;;;5092762;28;20415;-87
2021/12/19 10:58:31;;;;;;;7.60;2.27;;;8.40;99.90;;;;;;5077787;28;20794;-86
2021/12/19 11:01:14;;;;;;;4.87;1.13;;;8.50;99.90;;;;;;5074486;28;20409;-87
2021/12/19 11:03:46;;;;;;;4.13;1.60;;;8.50;99.90;;;;;;5081517;28;20918;-87
2021/12/19 11:06:25;;;;;;;9.60;1.00;;;8.50;99.90;;;;;;5093892;28;20431;-87
2021/12/19 11:08:52;;;;;;;4.33;1.50;;;8.50;99.90;;;;;;5078946;28;20432;-87
2021/12/19 11:11:46;;;;;;;7.20;1.47;;;8.50;99.90;;;;;;5076214;28;20410;-87
2021/12/19 11:14:14;;;;;;;11.43;1.80;;;8.50;99.90;;;;;;5073917;28;20421;-87
2021/12/19 11:16:41;;;;;;;3.47;1.20;;;8.50;99.90;;;;;;5073246;28;20987;-90
2021/12/19 11:19:08;;;;;;;4.90;0.90;;;8.50;99.90;;;;;;5073442;28;20424;-90
2021/12/19 11:21:35;;;;;;;7.40;1.63;;;8.60;99.90;;;;;;5090886;28;20851;-85
2021/12/19 11:24:03;;;;;;;6.53;1.80;;;8.50;99.90;;;;;;5093150;28;20490;-87
2021/12/19 11:26:30;;;;;;;4.93;1.03;;;8.50;99.90;;;;;;5073552;28;20429;-88
2021/12/19 11:28:56;;;;;;;5.97;0.70;;;8.50;99.90;;;;;;5092003;28;21014;-87
2021/12/19 11:31:26;;;;;;;5.67;0.93;;;8.60;99.90;;;;;;5094825;28;20806;-87
2021/12/19 11:34:10;;;;;;;8.50;1.53;;;8.50;99.90;;;;;;5090036;28;20546;-87
2021/12/19 11:36:39;;;;;;;8.00;1.60;;;8.60;99.90;;;;;;5092091;28;20544;-88
2021/12/19 11:39:07;;;;;;;4.63;1.00;;;8.60;99.90;;;;;;5093979;28;20461;-90
2021/12/19 11:41:34;;;;;;;5.57;0.63;;;8.60;99.90;;;;;;5091860;28;20511;-87
2021/12/19 11:44:03;;;;;;;6.83;0.70;;;8.50;99.90;;;;;;5093602;28;20806;-88
2021/12/19 11:46:52;;;;;;;7.13;0.93;;;8.50;99.90;;;;;;5093393;28;20416;-88
2021/12/19 11:49:25;;;;;;;7.20;0.60;;;8.60;99.90;;;;;;5092379;28;20425;-88
2021/12/19 11:52:27;;;;;;;6.23;1.80;;;8.60;99.90;;;;;;5093279;28;20413;-89
2021/12/19 11:55:14;;;;;;;9.10;1.00;;;8.60;99.90;;;;;;5094161;28;20409;-88
2021/12/19 11:57:41;;;;;;;5.57;1.50;;;8.60;99.90;;;;;;5092966;28;20471;-87
2021/12/19 12:00:25;;;;;;;6.93;1.53;;;8.60;99.90;;;;;;5093777;28;20413;-89
2021/12/19 12:03:13;;;;;;;5.00;0.67;;;8.60;99.90;;;;;;5092683;28;20952;-91
2021/12/19 12:05:44;;;;;;;5.87;1.00;;;8.70;99.90;;;;;;5093634;28;20484;-87
2021/12/19 12:08:11;;;;;;;6.70;0.77;;;8.70;99.90;;;;;;5092536;28;20409;-91
2021/12/19 12:10:49;;;;;;;8.80;1.33;;;8.70;99.90;;;;;;5092482;28;20820;-92
2021/12/19 12:13:34;;;;;;;6.13;1.33;;;8.70;99.90;;;;;;5092881;28;20433;-93
2021/12/19 12:16:44;;;;;;;3.83;0.97;;;8.70;99.90;;;;;;5091355;28;20418;-90
2021/12/19 12:19:10;;;;;;;5.37;0.70;;;8.70;99.90;;;;;;5092047;28;20432;-91
2021/12/19 12:21:47;;;;;;;5.13;0.73;;;8.70;99.90;;;;;;5093058;28;20759;-93
2021/12/19 12:24:12;;;;;;;10.00;1.73;;;8.80;99.90;;;;;;5092398;28;20665;-91
2021/12/19 12:26:56;;;;;;;6.13;1.00;;;8.80;99.90;;;;;;5092202;28;20453;-89
2021/12/19 12:29:23;;;;;;;8.83;2.67;;;8.70;99.90;;;;;;5092057;28;20527;-86
2021/12/19 12:31:49;;;;;;;2.70;1.00;;;8.70;99.90;;;;;;5091482;28;20459;-90
2021/12/19 12:34:17;;;;;;;3.90;0.70;;;8.80;99.90;;;;;;5091013;28;20446;-87
2021/12/19 12:36:44;;;;;;;10.00;1.93;;;8.70;99.90;;;;;;5092140;28;20465;-86
2021/12/19 12:39:21;;;;;;;5.23;0.77;;;8.70;99.90;;;;;;5090895;28;20463;-91
2021/12/19 12:44:15;;;;;;;6.60;1.13;;;8.80;99.90;;;;;;5092876;28;20453;-89
2021/12/19 12:46:44;;;;;;;6.20;0.63;;;8.70;99.90;;;;;;5092672;28;20188;-87
2021/12/19 12:49:29;;;;;;;6.43;1.00;;;8.70;99.90;;;;;;5095826;28;20409;-87
2021/12/19 12:51:57;;;;;;;8.23;1.10;;;8.70;99.90;;;;;;5092595;28;20408;-87
2021/12/19 12:54:29;;;;;;;4.17;0.90;;;8.70;99.90;;;;;;5091575;28;20402;-88
2021/12/19 12:57:00;;;;;;;4.90;1.17;;;8.70;99.90;;;;;;5091616;28;20564;-86
2021/12/19 12:59:29;;;;;;;7.97;1.20;;;8.60;99.90;;;;;;5092515;28;20420;-89
2021/12/19 13:02:08;;;;;;;7.80;0.80;;;8.60;99.90;;;;;;5091641;28;20420;-91
2021/12/19 13:04:34;;;;;;;8.10;1.43;;;8.60;99.90;;;;;;5091117;28;20974;-87
2021/12/19 13:07:04;;;;;;;3.83;0.77;;;8.70;99.90;;;;;;5092653;28;20416;-93
2021/12/19 13:09:37;;;;;;;9.13;0.70;;;8.70;99.90;;;;;;5090883;28;20470;-87
2021/12/19 13:12:06;;;;;;;14.10;1.63;;;8.60;99.90;;;;;;5091018;28;20972;-88
2021/12/19 13:14:38;;;;;;;5.07;1.03;;;8.70;99.90;;;;;;5095655;28;20937;-87
2021/12/19 13:17:13;;;;;;;8.00;0.70;;;8.70;99.90;;;;;;5094675;28;20852;-89
2021/12/19 13:19:59;;;;;;;9.87;1.10;;;8.60;99.90;;;;;;5094469;28;20424;-86
2021/12/19 13:22:38;;;;;;;5.83;0.60;;;8.60;99.90;;;;;;5096228;28;20413;-86
2021/12/19 13:25:12;;;;;;;6.93;0.77;;;8.70;99.90;;;;;;5096024;28;20419;-88
2021/12/19 13:27:59;;;;;;;9.07;1.03;;;8.70;99.90;;;;;;5095927;28;20405;-88
2021/12/19 13:30:31;;;;;;;10.13;1.03;;;8.70;99.90;;;;;;5095667;28;20411;-88
2021/12/19 13:33:07;;;;;;;5.20;0.80;;;8.70;99.90;;;;;;5096092;28;20417;-88
2021/12/19 13:35:42;;;;;;;8.03;1.40;;;8.70;99.90;;;;;;5095487;28;20425;-89
2021/12/19 13:38:21;;;;;;;6.87;1.17;;;8.60;99.90;;;;;;5095523;28;20491;-87
2021/12/19 13:40:50;;;;;;;5.70;0.40;;;8.70;99.90;;;;;;5094340;28;20450;-86
2021/12/19 13:43:23;;;;;;;4.37;0.40;;;8.60;99.90;;;;;;5095144;28;20409;-87
2021/12/19 13:46:00;;;;;;;4.00;0.70;;;8.60;99.90;;;;;;5093838;28;20449;-86
2021/12/19 13:48:28;;;;;;;5.80;0.83;;;8.60;99.90;;;;;;5093267;28;20424;-87
2021/12/19 13:50:56;;;;;;;5.70;1.20;;;8.50;99.90;;;;;;5094749;28;20497;-87
2021/12/19 13:53:23;;;;;;;5.83;0.70;;;8.40;99.90;;;;;;5089364;28;20750;-85
2021/12/19 13:56:08;;;;;;;7.40;1.37;;;8.40;99.90;;;;;;5095006;28;20474;-89
2021/12/19 13:58:38;;;;;;;8.90;1.60;;;8.40;99.90;;;;;;5093701;28;20863;-86
2021/12/19 14:01:18;;;;;;;5.50;1.37;;;8.30;99.90;;;;;;5093575;28;20758;-88
2021/12/19 14:03:49;;;;;;;5.53;0.63;;;8.30;99.90;;;;;;5089482;28;21232;-85
2021/12/19 14:06:22;;;;;;;8.00;1.03;;;8.30;99.90;;;;;;5094635;28;20414;-87
2021/12/19 14:08:53;;;;;;;4.13;0.60;;;8.30;99.90;;;;;;5095365;28;20448;-85
2021/12/19 14:11:20;;;;;;;5.47;0.90;;;8.30;99.90;;;;;;5095261;28;20417;-90
2021/12/19 14:14:03;;;;;;;7.03;1.37;;;8.30;99.90;;;;;;5095246;28;20424;-85
2021/12/19 14:16:38;;;;;;;7.60;1.43;;;8.30;99.90;;;;;;5094961;28;20492;-84
2021/12/19 14:19:24;;;;;;;6.63;1.90;;;8.30;99.90;;;;;;5094493;28;20412;-87